createdAt,value
2018-05-26T00:02:49.385Z,15.05
2018-05-26T00:05:52.706Z,15.03
2018-05-26T00:08:56.793Z,15.01
2018-05-26T00:12:00.122Z,14.97
2018-05-26T00:15:04.198Z,14.94
2018-05-26T00:18:07.518Z,14.90
2018-05-26T00:21:10.849Z,14.88
2018-05-26T00:24:14.165Z,14.83
2018-05-26T00:27:17.467Z,14.74
2018-05-26T00:30:20.773Z,14.65
2018-05-26T00:33:24.096Z,14.53
2018-05-26T00:36:27.409Z,14.40
2018-05-26T00:39:31.502Z,14.33
2018-05-26T00:42:34.833Z,14.32
2018-05-26T00:45:38.901Z,14.36
2018-05-26T00:48:42.216Z,14.37
2018-05-26T00:51:45.530Z,14.40
2018-05-26T00:54:49.618Z,14.42
2018-05-26T00:57:52.929Z,14.44
2018-05-26T01:00:56.265Z,14.39
2018-05-26T01:03:59.604Z,14.33
2018-05-26T01:07:02.914Z,14.27
2018-05-26T01:10:06.233Z,14.19
2018-05-26T01:13:09.553Z,14.12
2018-05-26T01:16:12.878Z,14.05
2018-05-26T01:19:16.176Z,13.93
2018-05-26T01:22:19.493Z,13.82
2018-05-26T01:25:22.810Z,13.74
2018-05-26T01:28:26.894Z,13.69
2018-05-26T01:31:30.197Z,13.62
2018-05-26T01:34:33.518Z,13.57
2018-05-26T01:37:37.585Z,13.51
2018-05-26T01:40:40.906Z,13.46
2018-05-26T01:43:44.209Z,13.44
2018-05-26T01:46:47.541Z,13.42
2018-05-26T01:49:50.845Z,13.34
2018-05-26T01:52:54.178Z,13.24
2018-05-26T01:55:57.489Z,13.16
2018-05-26T01:59:00.823Z,13.04
2018-05-26T02:02:04.126Z,12.97
2018-05-26T02:05:07.458Z,12.95
2018-05-26T02:08:10.762Z,12.95
2018-05-26T02:11:14.078Z,12.95
2018-05-26T02:14:17.393Z,12.99
2018-05-26T02:17:20.743Z,13.00
2018-05-26T02:20:24.058Z,13.00
2018-05-26T02:23:27.401Z,12.96
2018-05-26T02:26:30.709Z,12.95
2018-05-26T02:29:34.054Z,12.93
2018-05-26T02:32:37.363Z,12.92
2018-05-26T02:35:40.707Z,12.88
2018-05-26T02:38:44.018Z,12.83
2018-05-26T02:41:47.340Z,12.77
2018-05-26T02:44:50.653Z,12.74
2018-05-26T02:47:53.993Z,12.73
2018-05-26T02:50:57.301Z,12.71
2018-05-26T02:54:00.625Z,12.71
2018-05-26T02:57:03.941Z,12.68
2018-05-26T03:00:07.265Z,12.65
2018-05-26T03:03:10.610Z,12.67
2018-05-26T03:06:19.419Z,12.64
2018-05-26T03:09:28.188Z,12.65
2018-05-26T03:12:37.865Z,12.66
2018-05-26T03:15:41.177Z,12.69
2018-05-26T03:18:44.493Z,12.72
2018-05-26T03:21:47.800Z,12.76
2018-05-26T03:24:51.148Z,12.74
2018-05-26T03:27:54.453Z,12.72
2018-05-26T03:30:57.793Z,12.70
2018-05-26T03:34:01.097Z,12.66
2018-05-26T03:37:04.418Z,12.63
2018-05-26T03:40:08.498Z,12.59
2018-05-26T03:43:11.817Z,12.63
2018-05-26T03:46:15.881Z,12.80
2018-05-26T03:49:19.193Z,12.81
2018-05-26T03:52:22.500Z,12.86
2018-05-26T03:55:44.501Z,12.90
2018-05-26T03:59:05.582Z,12.94
2018-05-26T04:02:09.667Z,13.01
2018-05-26T04:05:12.964Z,13.10
2018-05-26T04:08:16.301Z,13.16
2018-05-26T04:11:20.433Z,13.17
2018-05-26T04:14:23.746Z,13.22
2018-05-26T04:17:27.053Z,13.31
2018-05-26T04:20:30.373Z,13.42
2018-05-26T04:23:33.677Z,13.51
2018-05-26T04:26:36.995Z,13.58
2018-05-26T04:29:40.302Z,13.64
2018-05-26T04:32:43.630Z,13.80
2018-05-26T04:35:46.933Z,13.90
2018-05-26T04:38:50.344Z,14.00
2018-05-26T04:41:53.654Z,14.01
2018-05-26T04:44:56.977Z,14.09
2018-05-26T04:48:00.286Z,14.19
2018-05-26T04:51:03.728Z,14.39
2018-05-26T04:54:07.045Z,14.48
2018-05-26T04:57:10.358Z,14.51
2018-05-26T05:00:14.430Z,14.62
2018-05-26T05:03:17.749Z,14.74
2018-05-26T05:06:21.070Z,14.89
2018-05-26T05:09:25.142Z,15.05
2018-05-26T05:12:28.465Z,15.12
2018-05-26T05:15:31.782Z,15.26
2018-05-26T05:18:35.097Z,15.32
2018-05-26T05:21:38.402Z,15.45
2018-05-26T05:24:41.718Z,15.57
2018-05-26T05:27:45.030Z,15.70
2018-05-26T05:30:48.349Z,15.82
2018-05-26T05:33:51.653Z,15.91
2018-05-26T05:36:55.741Z,16.01
2018-05-26T05:39:59.057Z,16.13
2018-05-26T05:43:03.141Z,16.24
2018-05-26T05:46:06.465Z,16.37
2018-05-26T05:49:10.532Z,16.50
2018-05-26T05:52:13.848Z,16.66
2018-05-26T05:55:17.202Z,16.76
2018-05-26T05:58:20.504Z,16.87
2018-05-26T06:01:23.813Z,16.97
2018-05-26T06:04:27.130Z,17.06
2018-05-26T06:07:30.450Z,17.19
2018-05-26T06:10:33.760Z,17.33
2018-05-26T06:13:37.847Z,17.46
2018-05-26T06:16:41.158Z,17.56
2018-05-26T06:19:44.483Z,17.63
2018-05-26T06:22:47.825Z,17.72
2018-05-26T06:25:51.134Z,17.79
2018-05-26T06:28:54.453Z,17.91
2018-05-26T06:31:58.541Z,18.01
2018-05-26T06:35:01.841Z,18.14
2018-05-26T06:38:05.174Z,18.29
2018-05-26T06:41:09.262Z,18.50
2018-05-26T06:44:12.575Z,18.63
2018-05-26T06:47:16.675Z,18.73
2018-05-26T06:50:19.989Z,18.83
2018-05-26T06:53:23.325Z,18.96
2018-05-26T06:56:26.644Z,19.18
2018-05-26T06:59:29.958Z,19.28
2018-05-26T07:02:33.282Z,19.36
2018-05-26T07:05:36.608Z,19.46
2018-05-26T07:08:39.937Z,19.58
2018-05-26T07:11:43.257Z,19.69
2018-05-26T07:14:47.339Z,19.80
2018-05-26T07:17:50.674Z,19.93
2018-05-26T07:20:53.982Z,20.07
2018-05-26T07:23:57.310Z,20.20
2018-05-26T07:27:00.614Z,20.31
2018-05-26T07:30:03.929Z,20.45
2018-05-26T07:33:07.240Z,20.62
2018-05-26T07:36:10.569Z,20.76
2018-05-26T07:39:13.886Z,20.89
2018-05-26T07:42:17.197Z,21.05
2018-05-26T07:45:20.509Z,21.21
2018-05-26T07:48:23.838Z,21.39
2018-05-26T07:51:27.914Z,21.53
2018-05-26T07:54:31.233Z,21.62
2018-05-26T07:57:34.560Z,21.75
2018-05-26T08:00:37.885Z,21.88
2018-05-26T08:03:41.185Z,22.05
2018-05-26T08:06:44.508Z,22.24
2018-05-26T08:09:47.822Z,22.41
2018-05-26T08:12:51.143Z,22.54
2018-05-26T08:15:54.452Z,22.56
2018-05-26T08:18:57.779Z,22.64
2018-05-26T08:22:01.101Z,22.69
2018-05-26T08:25:04.422Z,22.68
2018-05-26T08:28:07.859Z,22.74
2018-05-26T08:31:11.170Z,22.77
2018-05-26T08:34:14.495Z,22.87
2018-05-26T08:37:17.806Z,22.89
2018-05-26T08:40:21.890Z,22.97
2018-05-26T08:43:25.198Z,22.98
2018-05-26T08:46:28.500Z,22.99
2018-05-26T08:49:31.801Z,23.01
2018-05-26T08:52:35.109Z,22.98
2018-05-26T08:55:39.178Z,23.00
2018-05-26T08:58:42.497Z,22.86
2018-05-26T09:01:45.807Z,22.98
2018-05-26T09:04:49.130Z,23.12
2018-05-26T09:07:52.442Z,23.23
2018-05-26T09:10:55.751Z,23.29
2018-05-26T09:13:59.082Z,23.36
2018-05-26T09:17:02.383Z,23.48
2018-05-26T09:20:05.702Z,23.63
2018-05-26T09:23:09.028Z,23.65
2018-05-26T09:26:12.372Z,23.65
2018-05-26T09:29:15.696Z,23.67
2018-05-26T09:32:19.029Z,23.73
2018-05-26T09:35:22.337Z,23.73
2018-05-26T09:38:25.654Z,23.71
2018-05-26T09:41:28.958Z,23.78
2018-05-26T09:44:32.298Z,23.85
2018-05-26T09:47:35.614Z,23.90
2018-05-26T09:50:38.947Z,23.95
2018-05-26T09:53:42.266Z,24.04
2018-05-26T09:56:46.364Z,24.01
2018-05-26T09:59:49.675Z,24.00
2018-05-26T10:02:53.761Z,24.04
2018-05-26T10:05:57.094Z,24.15
2018-05-26T10:09:00.413Z,24.25
2018-05-26T10:12:03.717Z,24.40
2018-05-26T10:15:07.035Z,24.46
2018-05-26T10:18:10.347Z,24.55
2018-05-26T10:21:13.670Z,24.57
2018-05-26T10:24:16.978Z,24.56
2018-05-26T10:27:20.297Z,24.40
2018-05-26T10:30:23.605Z,24.22
2018-05-26T10:33:26.963Z,24.26
2018-05-26T10:36:30.270Z,24.22
2018-05-26T10:39:33.595Z,24.15
2018-05-26T10:42:36.930Z,24.21
2018-05-26T10:45:40.237Z,24.27
2018-05-26T10:48:44.330Z,24.38
2018-05-26T10:51:47.633Z,24.51
2018-05-26T10:54:50.940Z,24.54
2018-05-26T10:57:54.245Z,24.60
2018-05-26T11:00:58.326Z,24.65
2018-05-26T11:04:01.663Z,24.81
2018-05-26T11:07:04.968Z,24.85
2018-05-26T11:10:08.319Z,24.96
2018-05-26T11:13:11.625Z,25.16
2018-05-26T11:16:15.045Z,25.23
2018-05-26T11:19:18.279Z,25.28
2018-05-26T11:22:21.586Z,25.35
2018-05-26T11:25:24.907Z,25.28
2018-05-26T11:28:28.237Z,25.34
2018-05-26T11:31:31.578Z,25.29
2018-05-26T11:34:34.970Z,25.35
2018-05-26T11:37:38.294Z,25.40
2018-05-26T11:40:41.635Z,25.47
2018-05-26T11:43:44.945Z,25.53
2018-05-26T11:46:48.269Z,25.60
2018-05-26T11:49:51.616Z,25.67
2018-05-26T11:52:54.931Z,25.68
2018-05-26T11:55:58.267Z,25.59
2018-05-26T11:59:01.578Z,25.57
2018-05-26T12:02:04.925Z,25.67
2018-05-26T12:05:08.219Z,25.77
2018-05-26T12:08:11.558Z,25.86
2018-05-26T12:11:14.889Z,25.95
2018-05-26T12:14:18.216Z,26.03
2018-05-26T12:17:21.542Z,26.11
2018-05-26T12:20:24.867Z,26.17
2018-05-26T12:23:28.952Z,26.16
2018-05-26T12:26:32.290Z,26.19
2018-05-26T12:29:35.610Z,26.20
2018-05-26T12:32:38.930Z,26.16
2018-05-26T12:35:42.229Z,26.15
2018-05-26T12:38:45.549Z,26.14
2018-05-26T12:41:48.870Z,26.17
2018-05-26T12:44:52.952Z,26.17
2018-05-26T12:47:56.269Z,26.08
2018-05-26T12:51:00.365Z,26.01
2018-05-26T12:54:03.695Z,26.05
2018-05-26T12:57:07.108Z,26.14
2018-05-26T13:00:10.433Z,26.13
2018-05-26T13:03:13.757Z,26.16
2018-05-26T13:06:17.073Z,26.16
2018-05-26T13:09:21.170Z,26.23
2018-05-26T13:12:24.472Z,26.31
2018-05-26T13:15:27.805Z,26.30
2018-05-26T13:18:31.104Z,26.30
2018-05-26T13:21:34.438Z,26.33
2018-05-26T13:24:37.754Z,26.38
2018-05-26T13:27:41.065Z,26.32
2018-05-26T13:30:45.137Z,26.39
2018-05-26T13:33:48.469Z,26.44
2018-05-26T13:36:51.783Z,26.52
2018-05-26T13:39:55.114Z,26.63
2018-05-26T13:42:58.435Z,26.70
2018-05-26T13:46:01.764Z,26.58
2018-05-26T13:49:05.090Z,26.52
2018-05-26T13:52:08.451Z,26.59
2018-05-26T13:55:11.782Z,26.59
2018-05-26T13:58:15.865Z,26.59
2018-05-26T14:01:19.165Z,26.61
2018-05-26T14:04:23.281Z,26.68
2018-05-26T14:07:27.359Z,26.86
2018-05-26T14:10:30.712Z,26.96
2018-05-26T14:13:34.024Z,27.11
2018-05-26T14:16:37.407Z,27.34
2018-05-26T14:19:40.694Z,27.48
2018-05-26T14:22:44.037Z,27.49
2018-05-26T14:25:47.353Z,27.59
2018-05-26T14:28:50.677Z,27.54
2018-05-26T14:31:54.001Z,27.55
2018-05-26T14:34:57.340Z,27.62
2018-05-26T14:38:00.664Z,27.56
2018-05-26T14:41:04.757Z,27.58
2018-05-26T14:44:08.108Z,27.66
2018-05-26T14:47:11.417Z,27.79
2018-05-26T14:50:14.735Z,27.92
2018-05-26T14:53:18.054Z,28.07
2018-05-26T14:56:21.393Z,28.27
2018-05-26T14:59:24.706Z,28.58
2018-05-26T15:02:28.014Z,28.91
2018-05-26T15:05:31.309Z,29.26
2018-05-26T15:08:34.642Z,29.27
2018-05-26T15:11:37.955Z,29.40
2018-05-26T15:14:42.038Z,29.59
2018-05-26T15:17:45.342Z,29.73
2018-05-26T15:20:48.652Z,29.89
2018-05-26T15:23:52.749Z,29.98
2018-05-26T15:26:56.040Z,30.03
2018-05-26T15:29:59.361Z,30.15
2018-05-26T15:33:03.441Z,30.21
2018-05-26T15:36:06.762Z,30.13
2018-05-26T15:39:10.070Z,30.10
2018-05-26T15:42:14.146Z,29.96
2018-05-26T15:45:17.473Z,29.90
2018-05-26T15:48:20.782Z,30.06
2018-05-26T15:51:24.899Z,30.14
2018-05-26T15:54:28.207Z,30.08
2018-05-26T15:57:31.527Z,30.00
2018-05-26T16:00:34.881Z,29.98
2018-05-26T16:03:38.186Z,29.74
2018-05-26T16:06:42.276Z,29.48
2018-05-26T16:09:45.582Z,29.06
2018-05-26T16:12:49.656Z,28.68
2018-05-26T16:15:52.974Z,28.43
2018-05-26T16:18:56.288Z,27.95
2018-05-26T16:21:59.619Z,27.57
2018-05-26T16:25:02.930Z,27.28
2018-05-26T16:28:06.271Z,27.00
2018-05-26T16:31:09.578Z,26.72
2018-05-26T16:34:12.913Z,26.58
2018-05-26T16:37:16.221Z,26.43
2018-05-26T16:40:19.543Z,26.28
2018-05-26T16:43:22.845Z,26.07
2018-05-26T16:46:26.170Z,26.00
2018-05-26T16:49:29.471Z,25.96
2018-05-26T16:52:33.549Z,25.86
2018-05-26T16:55:36.866Z,25.75
2018-05-26T16:58:40.178Z,25.59
2018-05-26T17:01:44.269Z,25.50
2018-05-26T17:04:47.590Z,25.42
2018-05-26T17:07:50.910Z,25.30
2018-05-26T17:10:54.226Z,25.24
2018-05-26T17:13:57.537Z,25.23
2018-05-26T17:17:00.857Z,25.20
2018-05-26T17:20:04.174Z,25.10
2018-05-26T17:23:07.506Z,25.01
2018-05-26T17:26:10.809Z,24.98
2018-05-26T17:29:14.131Z,24.97
2018-05-26T17:32:17.433Z,24.91
2018-05-26T17:35:20.748Z,24.82
2018-05-26T17:38:24.818Z,24.78
2018-05-26T17:41:28.142Z,24.79
2018-05-26T17:44:31.450Z,24.81
2018-05-26T17:47:35.535Z,24.69
2018-05-26T17:50:38.850Z,24.59
2018-05-26T17:53:42.171Z,24.56
2018-05-26T17:56:46.251Z,24.54
2018-05-26T17:59:49.583Z,24.54
2018-05-26T18:02:53.652Z,24.53
2018-05-26T18:05:56.981Z,24.40
2018-05-26T18:09:00.328Z,24.35
2018-05-26T18:12:03.652Z,24.28
2018-05-26T18:15:07.016Z,24.26
2018-05-26T18:18:10.362Z,24.20
2018-05-26T18:21:13.679Z,24.15
2018-05-26T18:24:17.803Z,24.08
2018-05-26T18:27:21.101Z,23.98
2018-05-26T18:30:24.429Z,23.94
2018-05-26T18:33:27.759Z,23.91
2018-05-26T18:36:31.065Z,23.87
2018-05-26T18:39:34.389Z,23.80
2018-05-26T18:42:37.705Z,23.70
2018-05-26T18:45:41.806Z,23.66
2018-05-26T18:48:45.163Z,23.63
2018-05-26T18:51:48.449Z,23.55
2018-05-26T18:54:51.758Z,23.49
2018-05-26T18:57:55.080Z,23.41
2018-05-26T19:00:59.157Z,23.38
2018-05-26T19:04:02.561Z,23.29
2018-05-26T19:07:05.871Z,23.24
2018-05-26T19:10:09.950Z,23.17
2018-05-26T19:13:13.257Z,23.12
2018-05-26T19:16:16.573Z,23.09
2018-05-26T19:19:20.670Z,23.07
2018-05-26T19:22:23.979Z,23.02
2018-05-26T19:25:27.296Z,22.89
2018-05-26T19:28:31.379Z,22.79
2018-05-26T19:31:34.701Z,22.74
2018-05-26T19:34:38.805Z,22.64
2018-05-26T19:37:42.100Z,22.61
2018-05-26T19:40:45.450Z,22.51
2018-05-26T19:43:48.763Z,22.40
2018-05-26T19:46:52.078Z,22.31
2018-05-26T19:49:55.401Z,22.20
2018-05-26T19:52:59.485Z,22.13
2018-05-26T19:56:02.805Z,22.08
2018-05-26T19:59:06.877Z,21.98
2018-05-26T20:02:10.202Z,21.90
2018-05-26T20:05:13.510Z,21.86
2018-05-26T20:08:16.821Z,21.85
2018-05-26T20:11:20.129Z,21.77
2018-05-26T20:14:23.425Z,21.70
2018-05-26T20:17:26.733Z,21.64
2018-05-26T20:20:30.047Z,21.59
2018-05-26T20:23:33.374Z,21.55
2018-05-26T20:26:36.678Z,21.51
2018-05-26T20:29:39.989Z,21.48
2018-05-26T20:32:44.070Z,21.45
2018-05-26T20:35:47.385Z,21.42
2018-05-26T20:38:50.702Z,21.36
2018-05-26T20:41:54.920Z,21.31
2018-05-26T20:44:58.997Z,21.25
2018-05-26T20:48:02.305Z,21.19
2018-05-26T20:51:05.623Z,21.12
2018-05-26T20:54:09.715Z,21.01
2018-05-26T20:57:13.023Z,20.93
2018-05-26T21:00:16.342Z,20.86
2018-05-26T21:03:20.429Z,20.82
2018-05-26T21:06:23.729Z,20.77
2018-05-26T21:09:27.065Z,20.76
2018-05-26T21:12:30.366Z,20.73
2018-05-26T21:15:33.672Z,20.70
2018-05-26T21:18:36.970Z,20.66
2018-05-26T21:21:41.084Z,20.66
2018-05-26T21:24:44.390Z,20.66
2018-05-26T21:27:47.747Z,20.63
2018-05-26T21:30:51.808Z,20.61
2018-05-26T21:33:55.125Z,20.64
2018-05-26T21:36:58.430Z,20.60
2018-05-26T21:40:01.758Z,20.56
2018-05-26T21:43:05.070Z,20.52
2018-05-26T21:46:08.393Z,20.51
2018-05-26T21:49:11.722Z,20.48
2018-05-26T21:52:15.806Z,20.43
2018-05-26T21:55:19.125Z,20.40
2018-05-26T21:58:22.453Z,20.42
2018-05-26T22:01:25.752Z,20.34
2018-05-26T22:04:29.072Z,20.26
2018-05-26T22:07:32.386Z,20.17
2018-05-26T22:10:35.722Z,20.13
2018-05-26T22:13:39.815Z,20.09
2018-05-26T22:16:43.145Z,20.05
2018-05-26T22:19:46.486Z,20.02
2018-05-26T22:22:49.790Z,19.98
2018-05-26T22:25:53.120Z,19.90
2018-05-26T22:28:57.199Z,19.90
2018-05-26T22:32:00.518Z,19.88
2018-05-26T22:35:03.827Z,19.83
2018-05-26T22:38:07.905Z,19.77
2018-05-26T22:41:11.206Z,19.72
2018-05-26T22:44:14.550Z,19.62
2018-05-26T22:47:18.623Z,19.62
2018-05-26T22:50:21.942Z,19.58
2018-05-26T22:53:25.245Z,19.53
2018-05-26T22:56:29.346Z,19.47
2018-05-26T22:59:32.657Z,19.44
2018-05-26T23:02:36.738Z,19.42
2018-05-26T23:05:40.086Z,19.42
2018-05-26T23:08:43.402Z,19.42
2018-05-26T23:11:46.713Z,19.39
2018-05-26T23:14:50.019Z,19.34
2018-05-26T23:17:53.341Z,19.30
2018-05-26T23:20:56.654Z,19.28
2018-05-26T23:23:59.971Z,19.23
2018-05-26T23:27:03.294Z,19.22
2018-05-26T23:30:06.602Z,19.21
2018-05-26T23:33:09.961Z,19.11
2018-05-26T23:36:13.278Z,19.10
2018-05-26T23:39:16.597Z,19.07
2018-05-26T23:42:19.909Z,19.02
2018-05-26T23:45:23.225Z,19.02
2018-05-26T23:48:26.538Z,18.97
2018-05-26T23:51:29.881Z,18.91
2018-05-26T23:54:33.187Z,18.83
2018-05-26T23:57:36.502Z,18.74
